AirNav   Free SoundLink Mini II speaker
 
 343 users online  

21KY Lincoln Farm Airport
Hodgenville, Kentucky, USA

GOING TO HODGENVILLE?


FAA INFORMATION EFFECTIVE 26 MARCH 2020

Location

FAA Identifier: 21KY
Lat/Long: 37-32-15.2170N 085-44-14.8580W
37-32.253617N 085-44.247633W
37.5375603,-85.7374606
(estimated)
Elevation: 780 ft. / 238 m (estimated)
Variation: 02W (1985)
From city: 2 miles S of HODGENVILLE, KY
Time zone: UTC -4 (UTC -5 during Standard Time)
Zip code: 42748

Airport Operations

Airport use: Private use. Permission required prior to landing
Activation date: 08/1988
Control tower: no
ARTCC: INDIANAPOLIS CENTER
FSS: LOUISVILLE FLIGHT SERVICE STATION
Attendance: UNATNDD
Segmented circle: no

Airport Communications

WX AWOS-3 at EKX (13 nm NW): 121.025 (270-763-6433)

Nearby radio navigation aids

VOR radial/distance  VOR name  Freq  Var
EWOr206/6.4NEW HOPE VOR/DME110.8001E
FTKr154/24.8FORT KNOX VOR/DME109.6001W
MYSr133/(32.2)MYSTIC VOR108.2001W
IIUr192/34.8LOUISVILLE VORTAC114.8001E

 
NDB name  Hdg/Dist  Freq  Var  ID
GODMAN159/27.739603WGOI --. --- ..

Airport Services

Runway Information

Runway 3/21

Dimensions: 1700 x 60 ft. / 518 x 18 m
Surface: turf
RUNWAY 3  RUNWAY 21
Traffic pattern: leftleft

Airport Ownership and Management from official FAA records

Ownership: Privately-owned
Owner: JOEL RAY SPROWLS
2579 LINCOLN FARM RD
HODGENVILLE, KY 42748
Phone 502-358-3545

Additional Remarks

FOR CD CTC INDIANAPOLIS ARTCC AT 317-247-2411.

Instrument Procedures

There are no published instrument procedures at 21KY.

Some nearby airports with instrument procedures:

KEKX - Addington Field Airport (13 nm NW)
KBRY - Samuels Field Airport (20 nm NE)
KAAS - Taylor County Airport (23 nm SE)
6I2 - Lebanon Springfield Airport-George Hoerter Field (24 nm E)
KFTK - Godman Army Airfield (25 nm NW)
 
Loc | Ops | Rwys | IFR | FBO | Links
Com | Nav | Svcs | Stats | Notes
Area around 21KY (Lincoln Farm Airport)
 
Road maps at: MapQuest Bing Google
 
Aerial photo
WARNING: Photo may not be current or correct
Aerial photo of 21KY (Lincoln Farm Airport)
Do you have a better or more recent aerial photo of Lincoln Farm Airport that you would like to share? If so, please send us your photo.

 
Sectional chart

 
Airport distance calculator
Flying to Lincoln Farm Airport? Find the distance to fly.

From to 21KY

Sunrise and sunset
Times for 10-Apr-2020
 Local
(UTC-4)
 Zulu
(UTC)
Morning civil twilight06:4810:48
Sunrise07:1511:15
Sunset20:1300:13
Evening civil twilight20:4000:40

Current date and time
Zulu (UTC)  10-Apr-2020 06:55:12
Local (UTC-4)  10-Apr-2020 02:55:12
 
METAR
KEKX 
12nm NW 
100635Z AUTO 33009G15KT 290V360 10SM SCT080 04/M06 A2996 RMK AO2 T00401058
KBRY 
20nm NE 
100635Z AUTO 32009G17KT 287V347 10SM CLR 03/M04 A2994 RMK AO1
KAAS 
23nm SE 
100635Z AUTO 33011G20KT 270V360 10SM SCT036 BKN049 OVC090 06/00 A2998 RMK AO1
KFTK 
23nm NW 
100556Z AUTO 32009KT 10SM SCT043 BKN050 BKN075 05/M04 A2996 RMK AO2 DZE0455 SLP150 P0000 60000 T00491041 10113 20049 52037
K6I2 
24nm E 
100630Z AUTO 31013G20KT 10SM CLR 04/M02 A2994 RMK AO2
TAF
KFTK 
23nm NW 
100610Z 1006/1107 32012KT 9999 BKN050 BKN075 531002 QNH2996INS BECMG 1014/1015 29020G25KT 9999 SKC QNH3006INS BECMG 1017/1018 28010G15KT 9999 SKC QNH3003INS BECMG 1023/1024 26006KT 9999 SKC QNH3004INS TX10/1020Z TN01/1011Z
NOTAMs
Click for the latest NOTAMs
NOTAMs are issued by the DoD/FAA and will open in a separate window not controlled by AirNav.

 

 
 

Would you like to see your business listed on this page?

 If your business provides an interesting product or service to pilots, flight crews, aircraft, or users of the Lincoln Farm Airport, you should consider listing it here.  To start the listing process, click on the button below
 
Add a business
 

Other Pages about Lincoln Farm Airport

Update a link
 
Copyright © AirNav, LLC. All rights reserved. Privacy Policy  Contact